TimeCST,TemperatureF,Dew PointF,Humidity,Sea Level PressureIn,VisibilityMPH,Wind Direction,Wind SpeedMPH,Gust SpeedMPH,PrecipitationIn,Events,Conditions,WindDirDegrees,DateUTC
12:53 AM,53.1,41.0,64,30.20,10.0,SE,5.8,-,N/A,,Clear,140,2012-11-21 06:53:00
1:53 AM,54.0,41.0,62,30.19,10.0,SE,6.9,-,N/A,,Clear,140,2012-11-21 07:53:00
2:53 AM,55.0,41.0,59,30.19,10.0,SE,6.9,-,N/A,,Clear,140,2012-11-21 08:53:00
3:53 AM,53.1,42.1,66,30.19,10.0,SSE,5.8,-,N/A,,Clear,160,2012-11-21 09:53:00
4:53 AM,54.0,42.1,64,30.20,10.0,SSE,6.9,-,N/A,,Clear,150,2012-11-21 10:53:00
5:53 AM,55.0,41.0,59,30.21,10.0,SSE,8.1,-,N/A,,Clear,150,2012-11-21 11:53:00
6:53 AM,55.0,42.1,62,30.23,10.0,SSE,8.1,-,N/A,,Clear,150,2012-11-21 12:53:00
7:53 AM,57.9,42.1,56,30.23,10.0,SSE,8.1,-,N/A,,Clear,150,2012-11-21 13:53:00
8:53 AM,61.0,43.0,52,30.25,10.0,SW,5.8,-,N/A,,Clear,230,2012-11-21 14:53:00
9:53 AM,64.9,45.0,48,30.25,10.0,SSW,11.5,-,N/A,,Clear,200,2012-11-21 15:53:00
10:53 AM,70.0,48.0,46,30.23,10.0,South,15.0,-,N/A,,Clear,180,2012-11-21 16:53:00
11:53 AM,73.0,48.9,42,30.19,10.0,South,16.1,24.2,N/A,,Clear,190,2012-11-21 17:53:00
12:53 PM,73.9,46.9,38,30.15,10.0,SSW,15.0,21.9,N/A,,Clear,200,2012-11-21 18:53:00
1:53 PM,75.9,42.1,30,30.12,10.0,South,17.3,24.2,N/A,,Clear,190,2012-11-21 19:53:00
2:53 PM,75.0,43.0,32,30.09,10.0,SSW,16.1,20.7,N/A,,Clear,200,2012-11-21 20:53:00
3:53 PM,75.9,44.1,32,30.08,10.0,South,11.5,-,N/A,,Clear,190,2012-11-21 21:53:00
4:53 PM,72.0,44.1,37,30.07,10.0,South,5.8,-,N/A,,Clear,170,2012-11-21 22:53:00
5:53 PM,69.1,46.0,44,30.06,10.0,SSE,8.1,-,N/A,,Clear,160,2012-11-21 23:53:00
6:53 PM,66.9,46.0,47,30.06,10.0,SSE,11.5,-,N/A,,Clear,150,2012-11-22 00:53:00
7:53 PM,66.9,45.0,45,30.06,10.0,South,13.8,-,N/A,,Clear,170,2012-11-22 01:53:00
8:53 PM,66.9,45.0,45,30.04,10.0,South,12.7,21.9,N/A,,Clear,180,2012-11-22 02:53:00
9:53 PM,68.0,45.0,43,30.04,10.0,South,17.3,26.5,N/A,,Clear,180,2012-11-22 03:53:00
10:53 PM,66.9,45.0,45,30.01,10.0,South,16.1,-,N/A,,Clear,180,2012-11-22 04:53:00
11:53 PM,66.0,46.0,48,29.99,10.0,South,18.4,26.5,N/A,,Clear,190,2012-11-22 05:53:00